Time;durP1;ratioP1;P1;durP2;ratioP2;P2;SDS_P1;SDS_P2;PMS_P1;PMS_P2;Temp;Humidity;BMP_temperature;BMP_pressure;BME280_temperature;BME280_humidity;BME280_pressure;Samples;Min_cycle;Max_cycle;Signal;HPM_P1;HPM_P2
2023/04/06 00:01:17;;;;;;;18.20;9.85;;;;;;;6.83;42.11;101783.16;4906606;28;124378;-66
2023/04/06 00:03:45;;;;;;;17.38;9.75;;;;;;;6.81;42.29;101779.69;4911954;28;119672;-69
2023/04/06 00:06:12;;;;;;;15.45;9.27;;;;;;;6.80;42.25;101772.69;4907783;28;119044;-66
2023/04/06 00:08:43;;;;;;;15.30;8.95;;;;;;;6.78;42.23;101768.31;4891141;28;123139;-67
2023/04/06 00:11:10;;;;;;;14.90;8.98;;;;;;;6.76;42.32;101765.75;4907431;28;123875;-66
2023/04/06 00:13:37;;;;;;;15.40;8.30;;;;;;;6.73;42.20;101760.50;4909309;28;119169;-67
2023/04/06 00:16:05;;;;;;;15.57;8.60;;;;;;;6.71;42.37;101761.44;4895612;28;119048;-67
2023/04/06 00:18:33;;;;;;;17.48;9.30;;;;;;;6.68;42.68;101762.31;4906660;28;125024;-67
2023/04/06 00:21:00;;;;;;;17.75;9.38;;;;;;;6.66;42.55;101764.09;4906589;28;124519;-66
2023/04/06 00:23:27;;;;;;;16.92;8.98;;;;;;;6.63;42.68;101759.78;4908871;28;119584;-66
2023/04/06 00:25:55;;;;;;;16.75;9.45;;;;;;;6.60;42.43;101753.69;4909676;28;117964;-66
2023/04/06 00:28:26;;;;;;;16.02;9.45;;;;;;;6.58;42.50;101755.47;4894119;28;123310;-66
2023/04/06 00:30:55;;;;;;;17.08;9.43;;;;;;;6.55;42.42;101752.84;4907099;28;122965;-66
2023/04/06 00:33:22;;;;;;;14.98;8.98;;;;;;;6.54;42.63;101753.78;4891636;28;119304;-66
2023/04/06 00:35:50;;;;;;;18.25;9.82;;;;;;;6.50;42.69;101752.03;4906324;28;119338;-67
2023/04/06 00:38:17;;;;;;;18.05;9.82;;;;;;;6.47;42.83;101747.69;4910929;28;124020;-66
2023/04/06 00:40:45;;;;;;;15.93;9.57;;;;;;;6.45;42.67;101738.09;4914319;28;124248;-66
2023/04/06 00:43:12;;;;;;;18.63;9.55;;;;;;;6.42;42.93;101739.88;4905519;28;118813;-65
2023/04/06 00:45:41;;;;;;;16.20;9.32;;;;;;;6.41;42.85;101737.28;4902277;28;117960;-66
2023/04/06 00:48:08;;;;;;;17.33;9.52;;;;;;;6.39;43.07;101739.91;4895452;28;122583;-66
2023/04/06 00:50:36;;;;;;;18.00;9.75;;;;;;;6.38;42.89;101737.28;4911469;28;123724;-66
2023/04/06 00:53:03;;;;;;;16.58;9.90;;;;;;;6.36;43.26;101728.56;4895639;28;118079;-66
2023/04/06 00:55:30;;;;;;;17.83;9.48;;;;;;;6.34;43.22;101731.19;4913012;28;119168;-66
2023/04/06 00:58:00;;;;;;;15.98;9.43;;;;;;;6.34;43.27;101736.47;4909799;28;124571;-66
2023/04/06 01:00:31;;;;;;;15.57;9.45;;;;;;;6.32;43.18;101722.47;4910204;28;124246;-66
2023/04/06 01:03:01;;;;;;;16.00;9.52;;;;;;;6.30;43.46;101729.50;4895437;28;118523;-66
2023/04/06 01:05:40;;;;;;;20.30;9.95;;;;;;;6.29;43.17;101725.16;4883167;28;118698;-66
2023/04/06 01:08:14;;;;;;;16.98;10.40;;;;;;;6.29;43.54;101724.25;4900779;28;127251;-66
2023/04/06 01:10:42;;;;;;;22.23;10.73;;;;;;;6.27;43.48;101719.00;4894667;28;122977;-66
2023/04/06 01:13:19;;;;;;;20.08;9.70;;;;;;;6.27;43.43;101721.63;4910521;28;118991;-66
2023/04/06 01:15:59;;;;;;;18.73;9.45;;;;;;;6.23;43.19;101712.06;4909828;28;119109;-66
2023/04/06 01:18:33;;;;;;;17.75;9.48;;;;;;;6.21;43.47;101716.47;4895239;28;126567;-66
2023/04/06 01:21:15;;;;;;;15.70;9.38;;;;;;;6.18;43.50;101719.16;4910058;28;124091;-66
2023/04/06 01:23:57;;;;;;;16.52;9.43;;;;;;;6.16;43.30;101713.03;4912394;28;120683;-66
2023/04/06 01:26:33;;;;;;;18.38;9.98;;;;;;;6.12;43.50;101708.69;4895260;28;121730;-66
2023/04/06 01:29:04;;;;;;;17.60;9.70;;;;;;;6.09;43.59;101703.50;4905760;28;124141;-66
2023/04/06 01:31:32;;;;;;;16.83;9.68;;;;;;;6.07;43.27;101700.00;4909526;28;123464;-66
2023/04/06 01:34:00;;;;;;;18.00;10.32;;;;;;;6.04;43.46;101707.03;4908012;28;118380;-67
2023/04/06 01:36:27;;;;;;;17.77;10.45;;;;;;;6.01;43.57;101707.09;4910930;28;119286;-66
2023/04/06 01:39:07;;;;;;;17.02;10.23;;;;;;;5.99;43.19;101702.72;4901053;28;126176;-66
2023/04/06 01:41:37;;;;;;;19.15;10.20;;;;;;;5.94;43.43;101689.59;4894437;28;123659;-66
2023/04/06 01:44:04;;;;;;;17.85;10.00;;;;;;;5.92;43.58;101695.78;4909088;28;118325;-66
2023/04/06 01:46:32;;;;;;;16.50;9.75;;;;;;;5.91;43.69;101694.03;4910940;28;118588;-66
2023/04/06 01:49:02;;;;;;;19.25;10.52;;;;;;;5.90;43.70;101693.16;4907102;28;123172;-65
2023/04/06 01:51:33;;;;;;;19.60;10.52;;;;;;;5.89;43.85;101688.78;4906602;28;124639;-65
2023/04/06 01:54:03;;;;;;;18.73;10.70;;;;;;;5.88;44.03;101689.69;4902682;28;118341;-66
2023/04/06 01:57:10;;;;;;;21.00;10.17;;;;;;;5.87;43.88;101682.66;4886764;28;119853;-65
2023/04/06 01:59:44;;;;;;;17.13;9.93;;;;;;;5.87;43.95;101677.41;4905443;28;125633;-65
2023/04/06 02:02:21;;;;;;;19.38;10.20;;;;;;;5.85;43.95;101676.56;4891621;28;125616;-66
2023/04/06 02:04:58;;;;;;;18.55;9.75;;;;;;;5.84;43.96;101666.94;4910191;28;119915;-66
2023/04/06 02:07:26;;;;;;;18.77;10.02;;;;;;;5.82;44.08;101671.34;4910863;28;119395;-65
2023/04/06 02:09:55;;;;;;;19.88;10.23;;;;;;;5.81;44.21;101661.72;4902628;28;123089;-65
2023/04/06 02:12:31;;;;;;;17.17;9.98;;;;;;;5.79;44.16;101663.50;4905686;28;127037;-66
2023/04/06 02:14:59;;;;;;;15.95;9.65;;;;;;;5.78;44.33;101667.00;4897001;28;119290;-66
2023/04/06 02:17:29;;;;;;;21.13;10.90;;;;;;;5.76;44.29;101660.91;4908285;28;119697;-66
2023/04/06 02:19:56;;;;;;;20.10;10.90;;;;;;;5.78;44.37;101664.38;4909693;28;123688;-66
2023/04/06 02:22:23;;;;;;;17.13;10.02;;;;;;;5.77;44.30;101649.50;4909816;28;123972;-66
2023/04/06 02:24:51;;;;;;;14.40;9.27;;;;;;;5.76;44.48;101648.63;4908674;28;120416;-66
2023/04/06 02:27:18;;;;;;;21.13;10.73;;;;;;;5.76;44.49;101645.13;4911491;28;119428;-66
2023/04/06 02:29:46;;;;;;;19.05;10.57;;;;;;;5.75;44.55;101646.03;4908046;28;124689;-66
2023/04/06 02:32:17;;;;;;;17.90;10.25;;;;;;;5.76;44.75;101642.50;4908652;28;124868;-66
2023/04/06 02:34:45;;;;;;;19.05;10.00;;;;;;;5.75;44.47;101640.78;4910563;28;118463;-66
2023/04/06 02:37:13;;;;;;;18.27;9.70;;;;;;;5.75;44.58;101638.16;4910320;28;118295;-66
2023/04/06 02:39:41;;;;;;;15.63;9.15;;;;;;;5.74;44.61;101641.66;4891694;28;124526;-67
2023/04/06 02:42:09;;;;;;;19.23;9.93;;;;;;;5.75;44.90;101638.16;4896164;28;123254;-66
2023/04/06 02:44:36;;;;;;;19.67;10.13;;;;;;;5.75;44.71;101635.53;4899168;28;118299;-66
2023/04/06 02:47:03;;;;;;;20.35;10.10;;;;;;;5.76;44.68;101627.59;4908733;28;118088;-66
2023/04/06 02:49:31;;;;;;;23.40;10.07;;;;;;;5.77;44.97;101633.75;4892411;28;124481;-66
2023/04/06 02:51:59;;;;;;;18.13;9.85;;;;;;;5.78;44.98;101630.22;4893357;28;122885;-66
2023/04/06 02:54:31;;;;;;;20.35;9.77;;;;;;;5.78;44.73;101624.94;4901183;28;118522;-66
2023/04/06 02:56:59;;;;;;;21.90;10.00;;;;;;;5.78;44.82;101617.97;4898580;28;116947;-66
2023/04/06 02:59:35;;;;;;;19.35;9.73;;;;;;;5.80;44.88;101620.53;4893554;28;123697;-66
2023/04/06 03:02:22;;;;;;;19.42;10.18;;;;;;;5.82;45.00;101621.38;4908966;28;125146;-66
2023/04/06 03:04:50;;;;;;;18.30;9.25;;;;;;;5.84;44.77;101617.00;4897045;28;119312;-66
2023/04/06 03:07:26;;;;;;;19.73;10.32;;;;;;;5.86;45.01;101617.84;4895951;28;119001;-66
2023/04/06 03:09:53;;;;;;;19.77;10.05;;;;;;;5.88;44.96;101616.06;4909348;28;124231;-67
2023/04/06 03:12:20;;;;;;;20.88;10.80;;;;;;;5.89;44.97;101612.53;4906208;28;124719;-66
2023/04/06 03:15:13;;;;;;;17.63;9.57;;;;;;;5.88;44.82;101600.31;4893735;28;118783;-66
2023/04/06 03:17:45;;;;;;;18.63;9.55;;;;;;;5.89;44.71;101612.53;4898891;28;118126;-66
2023/04/06 03:20:27;;;;;;;17.15;9.77;;;;;;;5.91;44.96;101613.38;4899893;28;123758;-66
2023/04/06 03:22:54;;;;;;;19.23;9.50;;;;;;;5.93;44.86;101611.59;4909048;28;123498;-67
2023/04/06 03:25:26;;;;;;;18.67;9.82;;;;;;;5.96;45.07;101602.84;4907863;28;118224;-69
2023/04/06 03:27:58;;;;;;;18.00;10.15;;;;;;;5.98;45.28;101601.94;4907430;28;118235;-66
2023/04/06 03:30:26;;;;;;;20.63;10.15;;;;;;;6.00;45.04;101605.41;4902809;28;124506;-67
2023/04/06 03:32:53;;;;;;;19.67;10.60;;;;;;;6.04;45.07;101607.09;4892921;28;122759;-66
2023/04/06 03:35:24;;;;;;;17.50;9.88;;;;;;;6.06;44.93;101603.59;4905285;28;119036;-66
2023/04/06 03:37:51;;;;;;;24.40;9.75;;;;;;;6.07;45.11;101600.09;4908222;28;121875;-66
2023/04/06 03:40:18;;;;;;;19.23;10.23;;;;;;;6.07;45.07;101600.94;4909278;28;123849;-66
2023/04/06 03:42:46;;;;;;;21.38;9.82;;;;;;;6.08;45.11;101601.81;4904404;28;124046;-66
2023/04/06 03:45:15;;;;;;;20.48;10.35;;;;;;;6.09;44.96;101598.31;4909544;28;118761;-66
2023/04/06 03:47:49;;;;;;;19.23;9.88;;;;;;;6.10;45.06;101600.03;4900554;28;118790;-66
2023/04/06 03:50:17;;;;;;;19.88;10.13;;;;;;;6.12;45.14;101592.97;4907125;28;123324;-67
2023/04/06 03:52:45;;;;;;;17.10;10.15;;;;;;;6.13;45.22;101594.72;4898066;28;122984;-66
2023/04/06 03:55:12;;;;;;;18.13;10.30;;;;;;;6.15;45.31;101590.31;4907706;28;120171;-66
2023/04/06 03:57:40;;;;;;;19.60;10.27;;;;;;;6.17;45.09;101593.78;4907505;28;120499;-66
2023/04/06 04:00:08;;;;;;;21.70;10.35;;;;;;;6.17;45.00;101586.75;4909125;28;124068;-66
2023/04/06 04:02:41;;;;;;;20.13;10.40;;;;;;;6.19;45.10;101592.00;4892401;28;123103;-67
2023/04/06 04:05:09;;;;;;;20.88;10.38;;;;;;;6.20;45.34;101591.13;4907206;28;119438;-66
2023/04/06 04:07:36;;;;;;;24.65;10.68;;;;;;;6.21;45.41;101592.84;4892930;28;118125;-66
2023/04/06 04:10:06;;;;;;;17.23;10.43;;;;;;;6.23;45.19;101591.06;4897119;28;123127;-67
2023/04/06 04:12:33;;;;;;;18.17;10.75;;;;;;;6.24;45.07;101591.03;4896283;28;123510;-67
2023/04/06 04:15:00;;;;;;;18.90;11.00;;;;;;;6.26;45.21;101591.03;4888084;28;118367;-67
2023/04/06 04:17:27;;;;;;;19.40;10.27;;;;;;;6.29;45.41;101591.00;4909001;28;118858;-67
2023/04/06 04:19:55;;;;;;;19.08;10.73;;;;;;;6.30;45.32;101587.44;4906644;28;125014;-67
2023/04/06 04:22:22;;;;;;;22.35;10.93;;;;;;;6.32;45.33;101590.91;4907383;28;123896;-66
2023/04/06 04:24:49;;;;;;;17.95;9.75;;;;;;;6.35;45.47;101590.03;4908680;28;119771;-66
2023/04/06 04:27:17;;;;;;;20.33;10.68;;;;;;;6.38;45.55;101590.81;4892440;28;118659;-66
2023/04/06 04:29:46;;;;;;;19.58;10.48;;;;;;;6.39;45.39;101592.56;4903219;28;123141;-67
2023/04/06 04:32:13;;;;;;;18.52;10.35;;;;;;;6.42;45.53;101592.53;4891427;28;123062;-66
2023/04/06 04:34:41;;;;;;;20.25;10.52;;;;;;;6.47;45.66;101599.47;4901427;28;117828;-66
2023/04/06 04:37:13;;;;;;;20.30;9.95;;;;;;;6.48;45.63;101593.31;4894096;28;118277;-67
2023/04/06 04:39:51;;;;;;;18.90;10.48;;;;;;;6.48;45.52;101596.84;4890906;28;127135;-68
2023/04/06 04:42:18;;;;;;;21.58;10.55;;;;;;;6.50;45.59;101588.88;4891311;28;124088;-67
2023/04/06 04:44:50;;;;;;;18.00;9.55;;;;;;;6.51;44.86;101595.91;4907660;28;119158;-67
2023/04/06 04:47:28;;;;;;;19.52;10.23;;;;;;;6.52;45.23;101606.41;4909349;28;119729;-67
2023/04/06 04:49:56;;;;;;;19.45;10.57;;;;;;;6.53;45.28;101599.38;4897760;28;123480;-67
2023/04/06 04:52:24;;;;;;;23.33;11.23;;;;;;;6.54;45.23;101593.22;4906987;28;122943;-67
2023/04/06 04:55:10;;;;;;;;;;;;;;;6.54;45.13;101595.88;4896235;28;118402;-67
2023/04/06 04:57:38;;;;;;;20.98;9.48;;;;;;;6.54;44.93;101595.88;4908096;28;119322;-67
2023/04/06 05:00:07;;;;;;;22.65;9.68;;;;;;;6.53;45.23;101594.13;4908357;28;123386;-72
2023/04/06 05:02:41;;;;;;;21.95;10.57;;;;;;;6.53;45.17;101599.38;4906835;28;127199;-67
2023/04/06 05:05:16;;;;;;;24.57;11.00;;;;;;;6.55;45.04;101592.31;4908256;28;118838;-67
2023/04/06 05:07:43;;;;;;;21.95;9.48;;;;;;;6.56;45.17;101596.72;4907954;28;118580;-67
2023/04/06 05:10:20;;;;;;;23.52;9.60;;;;;;;6.58;45.16;101597.53;4907651;28;123892;-67
2023/04/06 05:12:54;;;;;;;18.30;9.50;;;;;;;6.61;45.27;101592.22;4894672;28;125734;-68
2023/04/06 05:15:22;;;;;;;20.25;9.80;;;;;;;6.62;45.29;101593.97;4877052;28;118409;-68
2023/04/06 05:17:53;;;;;;;23.27;11.13;;;;;;;6.63;45.08;101590.44;4906397;28;118062;-68
2023/04/06 05:20:28;;;;;;;21.37;10.07;;;;;;;6.65;45.21;101587.78;4892208;28;123394;-68
2023/04/06 05:22:55;;;;;;;20.80;10.30;;;;;;;6.67;45.17;101589.50;4901227;28;123419;-68
2023/04/06 05:25:23;;;;;;;18.98;9.98;;;;;;;6.70;45.18;101597.31;4911386;28;120096;-68
2023/04/06 05:27:53;;;;;;;20.85;9.98;;;;;;;6.72;45.21;101579.75;4902455;28;118185;-68
2023/04/06 05:30:28;;;;;;;25.63;10.18;;;;;;;6.76;45.09;101599.00;4900094;28;123210;-67
2023/04/06 05:32:56;;;;;;;20.83;10.27;;;;;;;6.79;45.08;101586.66;4899409;28;123063;-68
2023/04/06 05:35:26;;;;;;;23.70;10.80;;;;;;;6.85;45.25;101590.94;4907306;28;120825;-68
2023/04/06 05:37:59;;;;;;;19.98;10.25;;;;;;;6.89;45.16;101586.47;4894858;28;120020;-68
2023/04/06 05:40:27;;;;;;;21.85;10.50;;;;;;;6.94;45.20;101584.66;4895010;28;123134;-68
2023/04/06 05:42:55;;;;;;;23.65;10.63;;;;;;;6.98;45.13;101581.06;4909631;28;122848;-68
2023/04/06 05:45:22;;;;;;;22.10;10.68;;;;;;;7.03;45.41;101584.47;4908729;28;118313;-68
2023/04/06 05:47:54;;;;;;;21.15;11.15;;;;;;;7.08;45.32;101577.34;4904009;28;117972;-68
2023/04/06 05:50:28;;;;;;;23.20;11.52;;;;;;;7.13;45.32;101580.75;4895782;28;126459;-67
2023/04/06 05:52:56;;;;;;;24.98;10.55;;;;;;;7.18;45.34;101581.56;4910517;28;124108;-67
2023/04/06 05:55:29;;;;;;;21.95;11.23;;;;;;;7.24;45.29;101577.06;4895543;28;118497;-67
2023/04/06 05:58:09;;;;;;;27.77;11.55;;;;;;;7.31;45.33;101579.56;4909714;28;119386;-67
2023/04/06 06:00:38;;;;;;;25.30;12.15;;;;;;;7.37;45.12;101583.84;4908848;28;124079;-67
2023/04/06 06:03:08;;;;;;;25.98;12.05;;;;;;;7.45;45.11;101574.00;4894766;28;123008;-67
2023/04/06 06:05:36;;;;;;;24.23;11.00;;;;;;;7.51;45.55;101571.22;4895166;28;118913;-67
2023/04/06 06:08:10;;;;;;;24.17;10.45;;;;;;;7.59;45.12;101574.59;4896235;28;118278;-68
2023/04/06 06:10:39;;;;;;;20.73;8.77;;;;;;;7.67;45.44;101576.22;4894447;28;123194;-68
2023/04/06 06:13:09;;;;;;;18.27;9.00;;;;;;;7.78;45.05;101571.56;4892673;28;122905;-67
2023/04/06 06:15:37;;;;;;;21.05;9.30;;;;;;;7.88;45.22;101570.47;4909918;28;118253;-67
2023/04/06 06:18:05;;;;;;;17.83;8.60;;;;;;;7.97;45.51;101570.25;4911345;28;119256;-67
2023/04/06 06:20:32;;;;;;;20.88;8.98;;;;;;;8.09;45.50;101562.97;4892897;28;125514;-71
2023/04/06 06:23:03;;;;;;;21.67;8.52;;;;;;;8.19;45.27;101569.75;4905268;28;122211;-69
2023/04/06 06:25:32;;;;;;;20.45;8.77;;;;;;;8.28;45.17;101560.75;4909216;28;120325;-68
2023/04/06 06:27:59;;;;;;;18.50;8.60;;;;;;;8.37;45.01;101561.41;4907027;28;120029;-67
2023/04/06 06:30:29;;;;;;;18.98;8.57;;;;;;;8.48;44.99;101560.31;4893692;28;123241;-66
2023/04/06 06:32:57;;;;;;;18.58;9.02;;;;;;;8.58;45.08;101561.81;4893333;28;123660;-68
2023/04/06 06:35:25;;;;;;;17.80;8.45;;;;;;;8.69;44.90;101558.91;4896446;28;118581;-67
2023/04/06 06:37:52;;;;;;;17.45;8.75;;;;;;;8.80;44.81;101561.25;4893641;28;117682;-68
2023/04/06 06:40:23;;;;;;;15.82;8.05;;;;;;;8.88;44.89;101559.28;4906891;28;123770;-67
2023/04/06 06:42:52;;;;;;;19.75;8.23;;;;;;;8.95;44.82;101555.59;4893339;28;123145;-68
2023/04/06 06:45:26;;;;;;;16.48;7.88;;;;;;;9.04;44.69;101560.63;4904625;28;122224;-67
2023/04/06 06:47:53;;;;;;;15.85;8.02;;;;;;;9.11;44.25;101556.88;4908874;28;118156;-67
2023/04/06 06:50:21;;;;;;;17.42;8.27;;;;;;;9.18;44.25;101556.72;4908585;28;124820;-68
2023/04/06 06:52:49;;;;;;;17.58;8.02;;;;;;;9.23;44.28;101560.09;4902940;28;122989;-68
2023/04/06 06:55:18;;;;;;;15.50;8.23;;;;;;;9.28;44.44;101553.75;4893677;28;118493;-68
2023/04/06 06:57:46;;;;;;;16.65;7.88;;;;;;;9.34;44.22;101552.72;4893296;28;118093;-68
2023/04/06 07:00:14;;;;;;;14.63;7.68;;;;;;;9.40;44.14;101563.16;4893445;28;123158;-68
2023/04/06 07:02:43;;;;;;;18.00;8.25;;;;;;;9.45;43.97;101558.56;4891790;28;123568;-68
2023/04/06 07:05:11;;;;;;;17.85;7.78;;;;;;;9.49;44.28;101557.59;4909362;28;119329;-68
2023/04/06 07:07:54;;;;;;;17.60;8.15;;;;;;;9.55;43.91;101554.75;4907614;28;119079;-69
2023/04/06 07:10:22;;;;;;;16.85;8.38;;;;;;;9.63;44.01;101562.47;4910445;28;124274;-67
2023/04/06 07:12:50;;;;;;;17.00;8.45;;;;;;;9.70;44.10;101555.22;4905977;28;124392;-67
2023/04/06 07:15:17;;;;;;;18.77;8.35;;;;;;;9.78;44.08;101553.22;4890008;28;119245;-67
2023/04/06 07:17:45;;;;;;;19.38;8.50;;;;;;;9.85;43.86;101554.75;4908410;28;120069;-67
2023/04/06 07:20:13;;;;;;;16.75;8.55;;;;;;;9.96;44.04;101556.19;4892991;28;123027;-67
2023/04/06 07:22:44;;;;;;;14.35;7.45;;;;;;;10.03;43.73;101552.47;4909725;28;123824;-67
2023/04/06 07:25:11;;;;;;;14.57;7.88;;;;;;;10.10;43.99;101549.56;4894058;28;118687;-67
2023/04/06 07:27:40;;;;;;;17.67;8.27;;;;;;;10.19;43.88;101553.72;4889753;28;118166;-67
2023/04/06 07:30:09;;;;;;;17.77;7.90;;;;;;;10.27;43.73;101556.97;4895279;28;123751;-67
2023/04/06 07:32:37;;;;;;;17.60;8.63;;;;;;;10.36;43.67;101557.59;4890116;28;125474;-68
2023/04/06 07:35:04;;;;;;;18.00;7.95;;;;;;;10.44;43.78;101552.94;4904028;28;118467;-67
2023/04/06 07:37:32;;;;;;;16.88;7.97;;;;;;;10.50;43.53;101547.44;4889941;28;117658;-67
2023/04/06 07:39:59;;;;;;;20.63;11.07;;;;;;;10.58;43.63;101549.81;4904840;28;123738;-67
2023/04/06 07:42:27;;;;;;;19.73;11.02;;;;;;;10.64;43.63;101542.56;4907441;28;123293;-67
2023/04/06 07:44:54;;;;;;;19.40;11.40;;;;;;;10.68;43.43;101541.53;4893100;28;118583;-68
2023/04/06 07:47:23;;;;;;;20.85;11.52;;;;;;;10.74;43.40;101544.84;4908171;28;118308;-68
2023/04/06 07:49:50;;;;;;;20.83;11.30;;;;;;;10.79;43.33;101542.91;4892475;28;123905;-67
2023/04/06 07:52:17;;;;;;;23.50;11.75;;;;;;;10.84;43.19;101543.63;4891140;28;123039;-68
2023/04/06 07:54:45;;;;;;;20.52;11.40;;;;;;;10.90;43.01;101540.75;4902321;28;118472;-67
2023/04/06 07:57:12;;;;;;;19.00;10.98;;;;;;;10.92;43.11;101544.22;4908917;28;119100;-68
2023/04/06 07:59:41;;;;;;;18.92;11.13;;;;;;;10.93;42.85;101535.38;4907325;28;123989;-67
2023/04/06 08:02:08;;;;;;;21.08;11.07;;;;;;;10.97;43.03;101542.28;4888417;28;123734;-67
2023/04/06 08:04:36;;;;;;;23.35;11.20;;;;;;;10.99;43.03;101540.44;4906461;28;120310;-68
2023/04/06 08:07:03;;;;;;;20.20;11.70;;;;;;;11.05;42.91;101545.50;4911547;28;120077;-68
2023/04/06 08:09:30;;;;;;;21.85;11.73;;;;;;;11.13;42.99;101539.06;4905928;28;124796;-67
2023/04/06 08:11:58;;;;;;;24.80;11.52;;;;;;;11.19;42.78;101536.19;4904878;28;124887;-67
2023/04/06 08:14:25;;;;;;;21.95;11.35;;;;;;;11.26;42.75;101537.72;4907240;28;119408;-67
2023/04/06 08:16:52;;;;;;;20.30;11.00;;;;;;;11.30;42.47;101534.00;4908255;28;118987;-68
2023/04/06 08:19:20;;;;;;;20.13;11.10;;;;;;;11.35;42.62;101542.69;4905531;28;124162;-67
2023/04/06 08:21:47;;;;;;;20.85;11.93;;;;;;;11.41;42.73;101542.44;4906585;28;123869;-68
2023/04/06 08:24:14;;;;;;;24.05;12.05;;;;;;;11.53;42.96;101534.94;4908674;28;119212;-67
2023/04/06 08:26:42;;;;;;;17.13;10.80;;;;;;;11.67;42.68;101537.94;4909324;28;119330;-68
2023/04/06 08:29:09;;;;;;;20.23;11.40;;;;;;;11.79;42.80;101541.91;4906359;28;123864;-67
2023/04/06 08:31:36;;;;;;;18.02;11.63;;;;;;;11.91;42.78;101530.84;4907522;28;123811;-68
2023/04/06 08:34:05;;;;;;;19.35;11.70;;;;;;;12.03;42.70;101540.13;4907090;28;119733;-68
2023/04/06 08:36:33;;;;;;;19.45;11.02;;;;;;;12.14;42.54;101543.19;4906797;28;119200;-68
2023/04/06 08:39:00;;;;;;;22.20;11.27;;;;;;;12.23;42.45;101540.19;4907874;28;123814;-67
2023/04/06 08:41:28;;;;;;;20.17;11.25;;;;;;;12.31;42.30;101533.69;4907937;28;123998;-67
2023/04/06 08:43:55;;;;;;;20.83;11.10;;;;;;;12.39;42.20;101536.88;4909239;28;119254;-67
2023/04/06 08:46:28;;;;;;;24.30;12.70;;;;;;;12.46;42.30;101533.03;4909971;28;119054;-68
2023/04/06 08:48:57;;;;;;;19.27;11.52;;;;;;;12.51;42.31;101536.38;4906823;28;124972;-67
2023/04/06 08:51:26;;;;;;;17.95;11.85;;;;;;;12.59;42.18;101534.25;4889914;28;123616;-68
2023/04/06 08:53:55;;;;;;;23.98;11.75;;;;;;;12.66;42.12;101529.56;4907771;28;120867;-68
2023/04/06 08:56:27;;;;;;;19.13;10.70;;;;;;;12.74;42.15;101531.88;4907652;28;120323;-67
2023/04/06 08:58:55;;;;;;;19.95;11.52;;;;;;;12.83;41.96;101527.03;4909845;28;123822;-67
2023/04/06 09:01:25;;;;;;;16.13;11.10;;;;;;;12.88;41.79;101529.47;4910284;28;124612;-67
2023/04/06 09:04:00;;;;;;;18.45;11.80;;;;;;;12.94;41.61;101529.22;4895220;28;118994;-67
2023/04/06 09:06:28;;;;;;;23.55;12.60;;;;;;;13.00;41.75;101534.25;4910306;28;119771;-68
2023/04/06 09:08:55;;;;;;;20.42;11.88;;;;;;;13.10;41.92;101533.88;4910097;28;123888;-68
2023/04/06 09:11:22;;;;;;;22.77;12.23;;;;;;;13.17;41.68;101535.31;4912185;28;123737;-68
2023/04/06 09:13:54;;;;;;;19.60;11.77;;;;;;;13.25;41.89;101533.16;4911137;28;119035;-67
2023/04/06 09:16:22;;;;;;;20.60;11.90;;;;;;;13.36;41.72;101536.25;4907592;28;119383;-68
2023/04/06 09:18:50;;;;;;;18.65;11.18;;;;;;;13.46;41.40;101530.50;4911769;28;124381;-68
2023/04/06 09:21:18;;;;;;;20.17;12.82;;;;;;;13.53;41.64;101537.28;4905650;28;123828;-67
2023/04/06 09:23:59;;;;;;;20.60;12.30;;;;;;;13.61;41.25;101529.78;4909282;28;119771;-68
2023/04/06 09:26:27;;;;;;;19.95;12.15;;;;;;;13.69;41.25;101532.09;4907578;28;119003;-68
2023/04/06 09:28:55;;;;;;;19.83;12.50;;;;;;;13.73;41.18;101529.22;4908104;28;124115;-68
2023/04/06 09:31:25;;;;;;;24.65;12.18;;;;;;;13.80;41.13;101535.97;4919208;28;123923;-68
2023/04/06 09:33:54;;;;;;;19.30;12.38;;;;;;;13.90;40.95;101540.84;4911736;28;119659;-68
2023/04/06 09:36:35;;;;;;;19.67;11.98;;;;;;;13.94;40.92;101542.44;4912271;28;119955;-68
2023/04/06 09:39:03;;;;;;;24.17;12.45;;;;;;;13.97;40.76;101529.81;4910053;28;124803;-68
2023/04/06 09:41:35;;;;;;;18.58;11.82;;;;;;;13.97;40.35;101536.97;4894326;28;122706;-68
2023/04/06 09:44:07;;;;;;;23.38;11.63;;;;;;;13.97;40.42;101531.63;4894041;28;119254;-68
2023/04/06 09:46:37;;;;;;;19.08;12.00;;;;;;;13.97;40.50;101536.97;4912088;28;120096;-68
2023/04/06 09:49:28;;;;;;;20.33;11.90;;;;;;;14.01;40.40;101530.53;4907339;28;124936;-67
2023/04/06 09:51:59;;;;;;;22.63;12.07;;;;;;;14.01;40.42;101533.19;4907987;28;124412;-67
2023/04/06 09:54:30;;;;;;;23.40;11.82;;;;;;;14.06;40.34;101536.50;4906157;28;119249;-67
2023/04/06 09:57:14;;;;;;;18.48;12.18;;;;;;;14.09;40.59;101536.38;4897050;28;119131;-68
2023/04/06 10:00:03;;;;;;;19.60;12.38;;;;;;;14.17;40.44;101533.34;4908651;28;123947;-68
2023/04/06 10:02:58;;;;;;;20.98;11.82;;;;;;;14.24;40.40;101533.88;4904082;28;124049;-67
2023/04/06 10:05:34;;;;;;;21.30;11.98;;;;;;;14.28;40.43;101540.78;4911019;28;119597;-67
2023/04/06 10:08:09;;;;;;;19.98;11.55;;;;;;;14.32;40.44;101534.38;4909258;28;119442;-68
2023/04/06 10:10:37;;;;;;;23.17;12.68;;;;;;;14.37;40.14;101535.00;4906882;28;124563;-66
2023/04/06 10:13:05;;;;;;;22.48;11.85;;;;;;;14.41;40.25;101537.44;4907296;28;124455;-67
2023/04/06 10:15:33;;;;;;;21.23;12.05;;;;;;;14.44;40.20;101536.41;4893625;28;119114;-69
2023/04/06 10:18:01;;;;;;;20.63;12.30;;;;;;;14.49;40.08;101534.41;4907928;28;119197;-67
2023/04/06 10:20:47;;;;;;;22.88;12.18;;;;;;;14.54;40.11;101532.38;4892556;28;123226;-67
2023/04/06 10:23:20;;;;;;;21.42;12.10;;;;;;;14.58;40.33;101528.63;4906503;28;123769;-68
2023/04/06 10:25:59;;;;;;;20.55;11.98;;;;;;;14.66;40.32;101530.91;4903771;28;119333;-67
2023/04/06 10:28:35;;;;;;;20.50;11.93;;;;;;;14.71;40.13;101534.22;4909580;28;119080;-67
2023/04/06 10:31:06;;;;;;;22.45;12.02;;;;;;;14.78;40.26;101540.06;4908620;28;124075;-67
2023/04/06 10:33:34;;;;;;;19.70;12.13;;;;;;;14.82;40.26;101530.97;4910313;28;123871;-68
2023/04/06 10:36:12;;;;;;;19.02;11.55;;;;;;;14.87;40.24;101544.94;4908141;28;120313;-67
2023/04/06 10:38:41;;;;;;;22.25;12.15;;;;;;;14.90;40.23;101534.13;4895269;28;120228;-67
2023/04/06 10:41:11;;;;;;;20.45;12.18;;;;;;;14.92;40.18;101537.56;4907249;28;124849;-67
2023/04/06 10:43:41;;;;;;;21.58;11.98;;;;;;;14.97;40.35;101535.53;4910240;28;124169;-68
2023/04/06 10:46:10;;;;;;;20.33;12.10;;;;;;;15.04;40.05;101537.88;4909852;28;119188;-68
2023/04/06 10:48:43;;;;;;;21.88;12.38;;;;;;;15.09;39.99;101538.50;4900564;28;118923;-68
2023/04/06 10:51:16;;;;;;;20.60;12.52;;;;;;;15.11;39.97;101536.59;4910078;28;123933;-68
2023/04/06 10:53:48;;;;;;;20.80;12.02;;;;;;;15.11;40.17;101531.25;4910817;28;124466;-67
2023/04/06 10:56:17;;;;;;;21.15;12.30;;;;;;;15.11;40.39;101539.28;4908832;28;119424;-67
2023/04/06 10:58:50;;;;;;;18.75;12.15;;;;;;;15.13;40.51;101529.38;4909682;28;118878;-68
2023/04/06 11:01:18;;;;;;;20.02;11.63;;;;;;;15.15;40.85;101530.16;4898490;28;124765;-67
2023/04/06 11:03:53;;;;;;;15.57;10.90;;;;;;;15.16;40.89;101529.19;4910653;28;124447;-68
2023/04/06 11:06:26;;;;;;;18.83;11.35;;;;;;;15.14;41.21;101526.63;4909003;28;119353;-67
2023/04/06 11:08:54;;;;;;;15.63;9.52;;;;;;;15.16;41.54;101539.88;4897624;28;118954;-67
2023/04/06 11:11:26;;;;;;;16.30;9.63;;;;;;;15.15;41.47;101525.66;4906304;28;124190;-68
2023/04/06 11:13:54;;;;;;;13.93;9.20;;;;;;;15.13;41.43;101532.03;4910356;28;124623;-68
2023/04/06 11:16:27;;;;;;;12.43;8.05;;;;;;;15.10;41.58;101524.19;4910975;28;119952;-67
2023/04/06 11:18:57;;;;;;;14.32;8.88;;;;;;;15.07;41.78;101535.00;4909421;28;119058;-67
2023/04/06 11:21:43;;;;;;;14.30;8.73;;;;;;;15.04;41.97;101535.19;4907263;28;124023;-67
2023/04/06 11:24:16;;;;;;;12.15;8.52;;;;;;;15.02;42.27;101531.75;4910509;28;124026;-67